createdAt,value
2017-04-03T00:00:17.483Z,79.75
2017-04-03T00:00:58.370Z,79.52
2017-04-03T00:01:39.250Z,79.46
2017-04-03T00:02:20.134Z,80.28
2017-04-03T00:03:01.027Z,79.99
2017-04-03T00:03:41.905Z,79.99
2017-04-03T00:04:22.786Z,80.09
2017-04-03T00:05:03.667Z,80.66
2017-04-03T00:05:44.551Z,80.28
2017-04-03T00:06:25.429Z,80.28
2017-04-03T00:07:06.308Z,80.95
2017-04-03T00:07:47.201Z,81.14
2017-04-03T00:08:28.083Z,80.22
2017-04-03T00:09:08.970Z,79.99
2017-04-03T00:09:49.857Z,80.38
2017-04-03T00:10:30.738Z,80.66
2017-04-03T00:11:11.626Z,80.57
2017-04-03T00:11:52.503Z,80.57
2017-04-03T00:12:33.391Z,80.85
2017-04-03T00:13:14.272Z,80.95
2017-04-03T00:13:55.157Z,80.66
2017-04-03T00:14:36.039Z,80.28
2017-04-03T00:15:16.960Z,80.38
2017-04-03T00:15:57.800Z,80.38
2017-04-03T00:16:38.719Z,80.57
2017-04-03T00:17:19.564Z,80.38
2017-04-03T00:18:00.450Z,80.47
2017-04-03T00:18:41.335Z,80.47
2017-04-03T00:19:22.248Z,80.95
2017-04-03T00:20:03.132Z,80.76
2017-04-03T00:20:44.015Z,81.24
2017-04-03T00:21:24.900Z,80.76
2017-04-03T00:22:05.803Z,80.76
2017-04-03T00:22:46.685Z,80.76
2017-04-03T00:23:27.583Z,80.38
2017-04-03T00:24:08.437Z,80.09
2017-04-03T00:24:49.314Z,80.09
2017-04-03T00:25:30.206Z,80.28
2017-04-03T00:26:11.098Z,80.09
2017-04-03T00:26:52.011Z,80.47
2017-04-03T00:27:32.899Z,81.04
2017-04-03T00:28:13.785Z,80.95
2017-04-03T00:28:54.666Z,81.14
2017-04-03T00:29:35.548Z,80.95
2017-04-03T00:30:16.437Z,80.85
2017-04-03T00:30:57.326Z,80.76
2017-04-03T00:31:38.204Z,80.85
2017-04-03T00:32:19.094Z,81.04
2017-04-03T00:32:59.983Z,80.19
2017-04-03T00:33:40.871Z,80.47
2017-04-03T00:34:21.749Z,79.99
2017-04-03T00:35:02.631Z,79.99
2017-04-03T00:35:43.514Z,80.09
2017-04-03T00:36:24.424Z,79.43
2017-04-03T00:37:05.311Z,79.14
2017-04-03T00:37:46.195Z,78.94
2017-04-03T00:38:27.082Z,79.23
2017-04-03T00:39:07.962Z,79.14
2017-04-03T00:39:48.849Z,79.23
2017-04-03T00:40:29.734Z,79.43
2017-04-03T00:41:10.610Z,79.43
2017-04-03T00:41:51.494Z,79.23
2017-04-03T00:42:32.380Z,79.52
2017-04-03T00:43:13.269Z,79.61
2017-04-03T00:43:54.153Z,79.71
2017-04-03T00:44:35.038Z,79.04
2017-04-03T00:45:15.918Z,79.61
2017-04-03T00:45:56.798Z,79.33
2017-04-03T00:46:37.669Z,79.33
2017-04-03T00:47:18.550Z,79.14
2017-04-03T00:47:59.432Z,78.94
2017-04-03T00:48:40.322Z,79.04
2017-04-03T00:49:21.208Z,79.04
2017-04-03T00:50:02.094Z,78.56
2017-04-03T00:50:42.981Z,78.47
2017-04-03T00:51:23.879Z,78.85
2017-04-03T00:52:04.770Z,78.94
2017-04-03T00:52:45.693Z,78.66
2017-04-03T00:53:26.601Z,79.04
2017-04-03T00:54:07.504Z,78.72
2017-04-03T00:54:48.380Z,79.14
2017-04-03T00:55:29.256Z,78.72
2017-04-03T00:56:10.150Z,79.19
2017-04-03T00:56:51.041Z,79.52
2017-04-03T00:57:31.921Z,79.38
2017-04-03T00:58:12.811Z,79.04
2017-04-03T00:58:53.700Z,79.33
2017-04-03T00:59:34.579Z,79.1
2017-04-03T01:00:15.463Z,78.47
2017-04-03T01:00:56.359Z,79.1
2017-04-03T01:01:37.246Z,79.67
2017-04-03T01:02:18.132Z,79.38
2017-04-03T01:02:59.020Z,79.67
2017-04-03T01:03:39.913Z,79.28
2017-04-03T01:04:20.814Z,79.14
2017-04-03T01:05:01.711Z,79.52
2017-04-03T01:05:42.597Z,78.85
2017-04-03T01:06:23.482Z,79.28
2017-04-03T01:07:04.361Z,80.15
2017-04-03T01:07:45.245Z,80.33
2017-04-03T01:08:26.131Z,79.77
2017-04-03T01:09:07.033Z,79.77
2017-04-03T01:09:47.921Z,80.33
2017-04-03T01:10:28.806Z,80.43
2017-04-03T01:11:09.687Z,79.96
2017-04-03T01:11:50.565Z,80.15
2017-04-03T01:12:31.454Z,80.33
2017-04-03T01:13:12.329Z,81.1
2017-04-03T01:13:53.217Z,80.05
2017-04-03T01:14:34.097Z,80.72
2017-04-03T01:15:14.983Z,81.1
2017-04-03T01:15:55.868Z,80.91
2017-04-03T01:16:36.746Z,81.48
2017-04-03T01:17:17.621Z,81.48
2017-04-03T01:17:58.503Z,81.1
2017-04-03T01:18:39.396Z,81.29
2017-04-03T01:19:20.280Z,81.48
2017-04-03T01:20:01.143Z,80.72
2017-04-03T01:20:42.028Z,81.38
2017-04-03T01:21:22.911Z,81.67
2017-04-03T01:22:03.791Z,81.96
2017-04-03T01:22:44.671Z,81.67
2017-04-03T01:23:25.551Z,82.3
2017-04-03T01:24:06.436Z,81.77
2017-04-03T01:24:47.328Z,81.38
2017-04-03T01:25:28.195Z,81.38
2017-04-03T01:26:09.071Z,81.58
2017-04-03T01:26:49.951Z,81.48
2017-04-03T01:27:30.841Z,81.67
2017-04-03T01:28:11.718Z,81.67
2017-04-03T01:28:52.605Z,81.67
2017-04-03T01:29:33.488Z,80.81
2017-04-03T01:30:14.374Z,81.48
2017-04-03T01:30:55.256Z,81.38
2017-04-03T01:31:36.136Z,81.38
2017-04-03T01:32:17.017Z,80.81
2017-04-03T01:32:57.906Z,81.29
2017-04-03T01:33:38.786Z,81.38
2017-04-03T01:34:19.667Z,81.67
2017-04-03T01:35:00.550Z,81.38
2017-04-03T01:35:41.431Z,81.29
2017-04-03T01:36:22.313Z,81.38
2017-04-03T01:37:03.185Z,81.35
2017-04-03T01:37:44.061Z,81.38
2017-04-03T01:38:24.946Z,81.2
2017-04-03T01:39:05.830Z,81.01
2017-04-03T01:39:46.715Z,80.72
2017-04-03T01:40:27.614Z,81.01
2017-04-03T01:42:16.876Z,80.91
2017-04-03T01:42:57.753Z,81.01
2017-04-03T01:43:38.640Z,81.01
2017-04-03T01:44:19.518Z,81.48
2017-04-03T01:45:00.395Z,80.91
2017-04-03T01:45:41.281Z,81.48
2017-04-03T01:46:22.159Z,80.96
2017-04-03T01:47:03.040Z,81.96
2017-04-03T01:47:43.917Z,81.92
2017-04-03T01:48:24.799Z,81.63
2017-04-03T01:49:05.675Z,81.63
2017-04-03T01:49:46.553Z,82.4
2017-04-03T01:50:27.432Z,82.3
2017-04-03T01:51:08.313Z,82.01
2017-04-03T01:51:49.192Z,82.4
2017-04-03T01:52:30.078Z,82.11
2017-04-03T01:53:10.959Z,82.2
2017-04-03T01:53:51.842Z,81.67
2017-04-03T01:54:32.724Z,81.92
2017-04-03T01:55:13.607Z,82.3
2017-04-03T01:55:54.487Z,81.82
2017-04-03T01:56:35.374Z,82.2
2017-04-03T01:57:16.260Z,82.2
2017-04-03T01:57:57.142Z,81.92
2017-04-03T01:58:38.024Z,82.01
2017-04-03T01:59:18.901Z,82.2
2017-04-03T01:59:59.792Z,82.01
2017-04-03T02:00:40.675Z,82.01
2017-04-03T02:01:21.585Z,82.4
2017-04-03T02:02:02.466Z,82.4
2017-04-03T02:02:43.352Z,82.01
2017-04-03T02:03:24.240Z,81.77
2017-04-03T02:04:05.119Z,80.81
2017-04-03T02:04:45.999Z,80.72
2017-04-03T02:05:26.881Z,80.53
2017-04-03T02:06:07.769Z,81.2
2017-04-03T02:06:48.645Z,81.54
2017-04-03T02:07:29.518Z,81.35
2017-04-03T02:08:10.414Z,81.44
2017-04-03T02:08:51.295Z,81.15
2017-04-03T02:09:32.173Z,81.63
2017-04-03T02:10:13.048Z,81.73
2017-04-03T02:10:53.935Z,82.3
2017-04-03T02:11:34.815Z,82.2
2017-04-03T02:12:15.702Z,81.35
2017-04-03T02:12:56.579Z,81.15
2017-04-03T02:13:37.458Z,81.44
2017-04-03T02:14:18.340Z,81.35
2017-04-03T02:14:59.231Z,81.15
2017-04-03T02:15:40.114Z,81.15
2017-04-03T02:16:20.993Z,81.35
2017-04-03T02:17:01.884Z,81.15
2017-04-03T02:17:42.762Z,81.63
2017-04-03T02:18:23.643Z,81.73
2017-04-03T02:19:04.525Z,81.82
2017-04-03T02:19:45.413Z,82.01
2017-04-03T02:20:26.334Z,82.11
2017-04-03T02:21:07.211Z,82.2
2017-04-03T02:21:48.117Z,82.2
2017-04-03T02:22:28.994Z,81.73
2017-04-03T02:23:09.878Z,81.63
2017-04-03T02:23:50.763Z,81.82
2017-04-03T02:24:31.645Z,81.92
2017-04-03T02:25:12.531Z,81.92
2017-04-03T02:25:53.415Z,81.35
2017-04-03T02:26:34.295Z,81.63
2017-04-03T02:27:15.179Z,81.15
2017-04-03T02:27:56.060Z,81.54
2017-04-03T02:28:36.943Z,81.35
2017-04-03T02:29:17.825Z,81.35
2017-04-03T02:29:58.708Z,81.44
2017-04-03T02:30:39.592Z,81.15
2017-04-03T02:31:20.476Z,81.54
2017-04-03T02:32:01.372Z,81.63
2017-04-03T02:32:42.256Z,82.11
2017-04-03T02:33:23.122Z,82.49
2017-04-03T02:34:04.013Z,81.82
2017-04-03T02:34:44.893Z,81.63
2017-04-03T02:35:25.771Z,81.54
2017-04-03T02:36:06.652Z,81.82
2017-04-03T02:36:47.529Z,82.01
2017-04-03T02:37:28.427Z,82.2
2017-04-03T02:38:09.307Z,81.35
2017-04-03T02:38:50.189Z,82.11
2017-04-03T02:39:31.076Z,82.11
2017-04-03T02:40:11.960Z,82.2
2017-04-03T02:40:52.849Z,82.2
2017-04-03T02:41:33.724Z,81.92
2017-04-03T02:42:14.606Z,82.3
2017-04-03T02:42:55.495Z,82.68
2017-04-03T02:43:36.383Z,82.49
2017-04-03T02:44:17.260Z,83.35
2017-04-03T02:44:58.143Z,83.35
2017-04-03T02:45:39.023Z,83.5
2017-04-03T02:46:19.916Z,83.35
2017-04-03T02:47:00.790Z,82.68
2017-04-03T02:47:41.682Z,82.87
2017-04-03T02:48:22.566Z,82.59
2017-04-03T02:49:03.449Z,82.87
2017-04-03T02:49:44.341Z,83.12
2017-04-03T02:50:25.241Z,83.21
2017-04-03T02:51:06.124Z,83.78
2017-04-03T02:51:46.992Z,83.78
2017-04-03T02:52:27.883Z,83.78
2017-04-03T02:53:08.771Z,83.5
2017-04-03T02:53:49.661Z,83.25
2017-04-03T02:54:30.540Z,82.45
2017-04-03T02:55:11.418Z,82.64
2017-04-03T02:55:52.302Z,83.02
2017-04-03T02:56:33.191Z,82.73
2017-04-03T02:57:14.068Z,83.4
2017-04-03T02:57:54.952Z,83.59
2017-04-03T02:58:35.838Z,84.26
2017-04-03T02:59:16.713Z,84.07
2017-04-03T02:59:57.591Z,83.97
2017-04-03T03:00:38.469Z,84.16
2017-04-03T03:01:19.354Z,84.64
2017-04-03T03:02:00.259Z,84.16
2017-04-03T03:02:41.135Z,83.69
2017-04-03T03:03:22.019Z,83.69
2017-04-03T03:04:02.903Z,83.97
2017-04-03T03:04:43.784Z,83.31
2017-04-03T03:05:24.668Z,83.31
2017-04-03T03:06:05.533Z,84.26
2017-04-03T03:06:46.415Z,84.26
2017-04-03T03:07:27.299Z,83.97
2017-04-03T03:08:08.176Z,84.55
2017-04-03T03:08:49.052Z,84.45
2017-04-03T03:09:29.942Z,84.55
2017-04-03T03:10:10.826Z,84.36
2017-04-03T03:10:51.716Z,85.02
2017-04-03T03:11:32.608Z,84.45
2017-04-03T03:12:13.503Z,84.55
2017-04-03T03:12:54.386Z,84.92
2017-04-03T03:13:35.265Z,84.83
2017-04-03T03:14:16.137Z,84.69
2017-04-03T03:14:57.022Z,84.92
2017-04-03T03:15:37.917Z,85.5
2017-04-03T03:16:18.796Z,84.55
2017-04-03T03:16:59.681Z,84.92
2017-04-03T03:17:40.566Z,84.31
2017-04-03T03:18:21.450Z,84.92
2017-04-03T03:19:02.322Z,84.74
2017-04-03T03:19:43.196Z,85.27
2017-04-03T03:20:24.080Z,84.74
2017-04-03T03:21:04.963Z,85.5
2017-04-03T03:21:45.847Z,85.02
2017-04-03T03:22:26.725Z,85.55
2017-04-03T03:23:07.603Z,85.74
2017-04-03T03:23:48.498Z,86.22
2017-04-03T03:24:29.382Z,86.6
2017-04-03T03:25:10.260Z,85.64
2017-04-03T03:25:51.142Z,85.74
2017-04-03T03:26:32.031Z,85.84
2017-04-03T03:27:12.913Z,85.55
2017-04-03T03:27:53.793Z,85.74
2017-04-03T03:28:34.683Z,86.16
2017-04-03T03:29:15.571Z,86.22
2017-04-03T03:29:56.448Z,86.03
2017-04-03T03:30:37.330Z,86.26
2017-04-03T03:31:18.211Z,86.41
2017-04-03T03:31:59.093Z,86.12
2017-04-03T03:32:39.976Z,86.51
2017-04-03T03:33:20.859Z,86.41
2017-04-03T03:34:01.742Z,86.6
2017-04-03T03:34:42.628Z,86.32
2017-04-03T03:35:23.518Z,86.98
2017-04-03T03:36:04.391Z,87.17
2017-04-03T03:36:45.256Z,87.27
2017-04-03T03:37:26.134Z,87.17
2017-04-03T03:38:07.026Z,86.88
2017-04-03T03:38:47.925Z,87.65
2017-04-03T03:39:28.805Z,87.55
2017-04-03T03:40:09.700Z,87.46
2017-04-03T03:40:50.581Z,87.84
2017-04-03T03:41:31.457Z,87.46
2017-04-03T03:42:12.349Z,87.93
2017-04-03T03:42:53.233Z,88.22
2017-04-03T03:43:34.109Z,88.31
2017-04-03T03:44:14.989Z,88.51
2017-04-03T03:44:55.874Z,89.22
2017-04-03T03:45:36.752Z,88.75
2017-04-03T03:46:17.638Z,89.13
2017-04-03T03:46:58.519Z,89.32
2017-04-03T03:47:39.399Z,89.22
2017-04-03T03:48:20.285Z,89.32
2017-04-03T03:49:01.178Z,89.51
2017-04-03T03:49:42.048Z,89.51
2017-04-03T03:50:22.924Z,89.22
2017-04-03T03:51:03.802Z,89.51
2017-04-03T03:51:44.690Z,89.32
2017-04-03T03:52:25.576Z,89.61
2017-04-03T03:53:06.452Z,89.32
2017-04-03T03:53:47.342Z,89.7
2017-04-03T03:54:28.222Z,88.89
2017-04-03T03:55:09.102Z,89.13
2017-04-03T03:55:49.982Z,89.22
2017-04-03T03:56:30.871Z,89.61
2017-04-03T03:57:11.753Z,89.79
2017-04-03T03:57:52.640Z,89.7
2017-04-03T03:58:33.515Z,89.41
2017-04-03T03:59:14.411Z,89.22
2017-04-03T03:59:55.302Z,89.41
2017-04-03T04:00:36.170Z,90.36
2017-04-03T04:01:17.048Z,90.27
2017-04-03T04:01:57.931Z,90.17
2017-04-03T04:02:38.816Z,90.75
2017-04-03T04:03:19.707Z,90.17
2017-04-03T04:04:00.586Z,90.46
2017-04-03T04:04:41.467Z,90.17
2017-04-03T04:05:22.340Z,90.17
2017-04-03T04:06:03.213Z,90.17
2017-04-03T04:06:44.096Z,90.46
2017-04-03T04:07:24.970Z,89.89
2017-04-03T04:08:05.856Z,90.17
2017-04-03T04:08:46.739Z,90.17
2017-04-03T04:09:27.623Z,90.17
2017-04-03T04:10:08.500Z,89.79
2017-04-03T04:10:49.389Z,89.98
2017-04-03T04:11:30.276Z,89.41
2017-04-03T04:12:11.159Z,90.36
2017-04-03T04:12:52.037Z,90.46
2017-04-03T04:13:32.919Z,91.03
2017-04-03T04:14:13.808Z,90.94
2017-04-03T04:14:54.695Z,91.6
2017-04-03T04:15:35.574Z,91.31
2017-04-03T04:16:16.450Z,91.31
2017-04-03T04:16:57.330Z,91.22
2017-04-03T04:17:38.207Z,92.08
2017-04-03T04:18:19.085Z,92.32
2017-04-03T04:18:59.972Z,91.99
2017-04-03T04:19:40.852Z,92.18
2017-04-03T04:20:21.734Z,91.94
2017-04-03T04:21:02.617Z,92.51
2017-04-03T04:21:43.499Z,92.22
2017-04-03T04:22:24.389Z,93.18
2017-04-03T04:23:05.270Z,93.65
2017-04-03T04:23:46.155Z,94.37
2017-04-03T04:24:27.032Z,95.36
2017-04-03T04:25:07.904Z,94.89
2017-04-03T04:25:48.790Z,94.7
2017-04-03T04:26:29.681Z,95.03
2017-04-03T04:27:10.562Z,94.98
2017-04-03T04:27:51.440Z,95.41
2017-04-03T04:28:32.332Z,95.7
2017-04-03T04:29:13.225Z,95.51
2017-04-03T04:29:54.102Z,94.7
2017-04-03T04:30:34.980Z,94.93
2017-04-03T04:31:15.865Z,95.51
2017-04-03T04:31:56.747Z,96.55
2017-04-03T04:32:37.630Z,96.94
2017-04-03T04:33:18.513Z,97.22
2017-04-03T04:33:59.399Z,97.13
2017-04-03T04:34:40.280Z,96.94
2017-04-03T04:35:21.162Z,97.6
2017-04-03T04:36:02.041Z,97.69
2017-04-03T04:36:42.935Z,97.88
2017-04-03T04:37:23.801Z,98.55
2017-04-03T04:38:04.690Z,98.36
2017-04-03T04:38:45.569Z,98.27
2017-04-03T04:39:26.450Z,98.65
2017-04-03T04:40:07.349Z,99.5
2017-04-03T04:40:48.223Z,99.41
2017-04-03T04:41:29.099Z,99.84
2017-04-03T04:42:09.980Z,99.41
2017-04-03T04:42:50.862Z,99.02
2017-04-03T04:43:31.750Z,98.27
2017-04-03T04:44:12.625Z,97.79
2017-04-03T04:44:53.506Z,97.31
2017-04-03T04:45:34.391Z,97.69
2017-04-03T04:46:15.273Z,98.27
2017-04-03T04:46:56.157Z,98.36
2017-04-03T04:47:37.038Z,99.6
2017-04-03T04:48:17.927Z,99.6
2017-04-03T04:48:58.804Z,99.99
2017-04-03T04:49:39.680Z,99.99
2017-04-03T04:50:20.562Z,99.99
2017-04-03T04:51:01.435Z,99.99
2017-04-03T04:51:42.316Z,99.99
2017-04-03T04:52:23.196Z,99.99
2017-04-03T04:53:04.077Z,99.88
2017-04-03T04:53:45.044Z,99.99
2017-04-03T04:54:25.893Z,99.99
2017-04-03T04:55:06.774Z,99.22
2017-04-03T04:55:47.666Z,98.93
2017-04-03T04:56:28.545Z,99.79
2017-04-03T04:57:09.436Z,98.65
2017-04-03T04:57:50.313Z,99.6
2017-04-03T04:58:31.192Z,99.88
2017-04-03T04:59:12.077Z,99.41
2017-04-03T04:59:52.949Z,99.41
2017-04-03T05:00:33.834Z,98.46
2017-04-03T05:01:14.716Z,99.6
2017-04-03T05:01:55.603Z,99.41
2017-04-03T05:02:36.476Z,99.31
2017-04-03T05:03:17.358Z,98.83
2017-04-03T05:03:58.241Z,98.74
2017-04-03T05:04:39.133Z,99.41
2017-04-03T05:05:20.020Z,99.69
2017-04-03T05:06:00.894Z,99.31
2017-04-03T05:06:41.763Z,98.46
2017-04-03T05:07:22.666Z,98.46
2017-04-03T05:08:03.542Z,98.46
2017-04-03T05:08:44.433Z,98.55
2017-04-03T05:09:25.305Z,98.17
2017-04-03T05:10:06.189Z,98.55
2017-04-03T05:10:47.076Z,98.22
2017-04-03T05:11:27.957Z,98.41
2017-04-03T05:12:08.839Z,98.41
2017-04-03T05:12:49.725Z,98.27
2017-04-03T05:13:30.608Z,98.36
2017-04-03T05:14:11.491Z,98.32
2017-04-03T05:14:52.380Z,98.83
2017-04-03T05:15:33.314Z,98.46
2017-04-03T05:16:14.233Z,98.17
2017-04-03T05:16:55.107Z,98.46
2017-04-03T05:17:35.988Z,97.5
2017-04-03T05:18:16.877Z,98.17
2017-04-03T05:18:57.770Z,98.74
2017-04-03T05:19:38.661Z,98.69
2017-04-03T05:20:19.540Z,98.55
2017-04-03T05:21:00.441Z,98.03
2017-04-03T05:21:41.355Z,98.22
2017-04-03T05:22:22.204Z,97.55
2017-04-03T05:23:03.086Z,97.46
2017-04-03T05:23:43.975Z,97.55
2017-04-03T05:24:24.872Z,97.36
2017-04-03T05:25:05.767Z,97.74
2017-04-03T05:25:46.655Z,97.46
2017-04-03T05:26:27.538Z,97.65
2017-04-03T05:27:08.425Z,97.55
2017-04-03T05:27:49.312Z,97.17
2017-04-03T05:28:30.197Z,96.79
2017-04-03T05:29:11.089Z,96.03
2017-04-03T05:29:51.960Z,95.27
2017-04-03T05:30:32.898Z,95.27
2017-04-03T05:31:13.769Z,95.03
2017-04-03T05:31:54.663Z,95.27
2017-04-03T05:32:35.552Z,95.41
2017-04-03T05:33:16.430Z,94.56
2017-04-03T05:33:57.317Z,94.89
2017-04-03T05:34:38.202Z,94.79
2017-04-03T05:35:19.096Z,95.94
2017-04-03T05:35:59.964Z,96.22
2017-04-03T05:36:40.851Z,96.03
2017-04-03T05:37:21.730Z,95.84
2017-04-03T05:38:02.645Z,96.41
2017-04-03T05:38:43.488Z,96.51
2017-04-03T05:39:24.376Z,96.51
2017-04-03T05:40:05.254Z,97.46
2017-04-03T05:40:46.137Z,96.98
2017-04-03T05:41:27.009Z,96.41
2017-04-03T05:42:07.919Z,95.84
2017-04-03T05:42:48.853Z,95.65
2017-04-03T05:43:29.766Z,95.17
2017-04-03T05:44:10.690Z,95.46
2017-04-03T05:44:51.622Z,95.36
2017-04-03T05:45:32.477Z,95.56
2017-04-03T05:46:13.362Z,96.22
2017-04-03T05:46:54.245Z,95.36
2017-04-03T05:47:35.134Z,95.08
2017-04-03T05:48:16.024Z,94.46
2017-04-03T05:49:44.096Z,94.27
2017-04-03T05:50:25.023Z,94.27
2017-04-03T05:51:05.899Z,94.56
2017-04-03T05:51:46.794Z,94.56
2017-04-03T05:52:27.672Z,94.17
2017-04-03T05:53:08.540Z,93.89
2017-04-03T05:53:49.415Z,93.22
2017-04-03T05:54:30.331Z,93.51
2017-04-03T05:55:11.199Z,93.79
2017-04-03T05:55:52.125Z,94.27
2017-04-03T05:56:32.981Z,94.17
2017-04-03T05:57:13.864Z,94.27
2017-04-03T05:57:54.741Z,94.08
2017-04-03T05:58:35.620Z,93.7
2017-04-03T05:59:16.497Z,93.51
2017-04-03T05:59:57.412Z,93.79
2017-04-03T06:00:38.289Z,93.32
2017-04-03T06:01:19.187Z,93.13
2017-04-03T06:02:00.046Z,93.41
2017-04-03T06:02:40.927Z,93.13
2017-04-03T06:03:21.813Z,92.89
2017-04-03T06:04:02.686Z,93.84
2017-04-03T06:04:43.562Z,93.51
2017-04-03T06:05:24.420Z,93.41
2017-04-03T06:06:05.331Z,93.22
2017-04-03T06:06:46.185Z,92.65
2017-04-03T06:07:27.073Z,92.46
2017-04-03T06:08:07.950Z,92.65
2017-04-03T06:08:48.842Z,92.46
2017-04-03T06:09:29.724Z,92.18
2017-04-03T06:10:10.607Z,92.36
2017-04-03T06:10:51.486Z,93.41
2017-04-03T06:11:32.370Z,93.03
2017-04-03T06:12:13.244Z,92.46
2017-04-03T06:12:54.120Z,92.27
2017-04-03T06:13:34.999Z,92.46
2017-04-03T06:14:15.888Z,92.65
2017-04-03T06:14:56.799Z,92.18
2017-04-03T06:15:37.651Z,91.99
2017-04-03T06:16:18.533Z,92.08
2017-04-03T06:16:59.412Z,92.08
2017-04-03T06:17:40.292Z,92.08
2017-04-03T06:18:21.181Z,92.18
2017-04-03T06:19:02.066Z,92.36
2017-04-03T06:19:42.940Z,92.55
2017-04-03T06:20:23.831Z,92.08
2017-04-03T06:21:04.699Z,92.08
2017-04-03T06:21:45.580Z,91.99
2017-04-03T06:22:26.494Z,91.99
2017-04-03T06:23:07.389Z,91.79
2017-04-03T06:23:48.273Z,91.89
2017-04-03T06:24:29.155Z,91.6
2017-04-03T06:25:10.035Z,91.51
2017-04-03T06:25:50.918Z,91.7
2017-04-03T06:26:31.804Z,91.13
2017-04-03T06:27:12.691Z,91.41
2017-04-03T06:27:53.573Z,91.03
2017-04-03T06:28:34.458Z,90.94
2017-04-03T06:29:15.340Z,90.5
2017-04-03T06:29:56.238Z,90.56
2017-04-03T06:30:37.116Z,90.65
2017-04-03T06:31:18.006Z,89.94
2017-04-03T06:31:58.883Z,90.31
2017-04-03T06:32:39.814Z,90.08
2017-04-03T06:33:20.639Z,90.36
2017-04-03T06:34:01.523Z,90.17
2017-04-03T06:34:42.409Z,90.22
2017-04-03T06:35:23.286Z,90.27
2017-04-03T06:36:04.169Z,90.27
2017-04-03T06:36:45.056Z,90.56
2017-04-03T06:37:25.943Z,90.84
2017-04-03T06:38:06.829Z,91.03
2017-04-03T06:38:47.729Z,90.36
2017-04-03T06:39:28.614Z,90.65
2017-04-03T06:40:09.486Z,90.56
2017-04-03T06:40:50.369Z,90.36
2017-04-03T06:41:31.251Z,90.36
2017-04-03T06:42:12.128Z,90.17
2017-04-03T06:42:53.027Z,90.17
2017-04-03T06:43:33.911Z,90.75
2017-04-03T06:44:14.801Z,89.89
2017-04-03T06:44:55.692Z,89.32
2017-04-03T06:45:36.564Z,88.27
2017-04-03T06:46:17.446Z,88.37
2017-04-03T06:46:58.356Z,88.46
2017-04-03T06:47:39.241Z,88.31
2017-04-03T06:48:20.112Z,88.6
2017-04-03T06:49:01.006Z,88.31
2017-04-03T06:49:41.885Z,88.03
2017-04-03T06:50:22.764Z,88.41
2017-04-03T06:51:03.652Z,88.03
2017-04-03T06:51:44.563Z,87.84
2017-04-03T06:53:12.645Z,87.55
2017-04-03T06:53:53.580Z,87.65
2017-04-03T06:54:34.460Z,88.03
2017-04-03T06:55:15.332Z,87.93
2017-04-03T06:55:56.210Z,87.7
2017-04-03T06:56:37.096Z,88.08
2017-04-03T06:57:17.980Z,88.31
2017-04-03T06:57:58.852Z,88.12
2017-04-03T06:58:39.727Z,87.93
2017-04-03T06:59:20.612Z,87.79
2017-04-03T07:00:01.493Z,88.08
2017-04-03T07:00:42.374Z,88.08
2017-04-03T07:01:23.280Z,88.18
2017-04-03T07:02:51.360Z,88.08
2017-04-03T07:03:32.249Z,88.18
2017-04-03T07:04:13.129Z,87.93
2017-04-03T07:04:54.016Z,87.46
2017-04-03T07:05:34.937Z,87.55
2017-04-03T07:06:15.779Z,86.88
2017-04-03T07:06:56.668Z,87.41
2017-04-03T07:07:37.551Z,87.6
2017-04-03T07:08:18.426Z,87.36
2017-04-03T07:08:59.362Z,87.07
2017-04-03T07:09:40.248Z,86.98
2017-04-03T07:10:21.129Z,86.51
2017-04-03T07:11:02.015Z,86.6
2017-04-03T07:11:42.899Z,85.93
2017-04-03T07:12:23.778Z,86.03
2017-04-03T07:13:04.662Z,86.12
2017-04-03T07:13:45.545Z,85.74
2017-04-03T07:14:26.419Z,85.93
2017-04-03T07:15:07.297Z,86.65
2017-04-03T07:15:48.176Z,86.75
2017-04-03T07:16:29.066Z,87.03
2017-04-03T07:17:09.934Z,87.03
2017-04-03T07:17:50.817Z,86.41
2017-04-03T07:18:31.710Z,86.46
2017-04-03T07:19:12.587Z,86.65
2017-04-03T07:19:53.470Z,86.51
2017-04-03T07:20:34.359Z,86.65
2017-04-03T07:21:15.227Z,86.32
2017-04-03T07:21:56.118Z,86.36
2017-04-03T07:22:37.005Z,86.32
2017-04-03T07:23:17.897Z,85.84
2017-04-03T07:23:58.784Z,85.89
2017-04-03T07:24:39.661Z,85.8
2017-04-03T07:25:20.538Z,86.12
2017-04-03T07:26:01.425Z,85.89
2017-04-03T07:26:42.309Z,85.89
2017-04-03T07:27:23.197Z,85.64
2017-04-03T07:28:04.073Z,85.27
2017-04-03T07:28:44.958Z,85.27
2017-04-03T07:29:25.862Z,84.69
2017-04-03T07:30:06.730Z,84.22
2017-04-03T07:30:47.611Z,83.74
2017-04-03T07:31:28.495Z,83.93
2017-04-03T07:32:09.377Z,84.12
2017-04-03T07:32:50.279Z,84.22
2017-04-03T07:33:31.168Z,83.93
2017-04-03T07:34:12.047Z,84.22
2017-04-03T07:34:52.929Z,83.65
2017-04-03T07:35:33.815Z,83.36
2017-04-03T07:36:14.695Z,83.26
2017-04-03T07:36:55.592Z,82.6
2017-04-03T07:37:36.467Z,82.5
2017-04-03T07:38:17.347Z,82.5
2017-04-03T07:38:58.212Z,82.98
2017-04-03T07:39:39.101Z,82.6
2017-04-03T07:40:19.979Z,82.89
2017-04-03T07:41:00.864Z,82.6
2017-04-03T07:41:41.741Z,82.89
2017-04-03T07:42:22.625Z,82.5
2017-04-03T07:43:03.517Z,82.5
2017-04-03T07:43:44.393Z,82.12
2017-04-03T07:44:25.277Z,82.03
2017-04-03T07:45:06.159Z,82.12
2017-04-03T07:45:47.045Z,82.21
2017-04-03T07:46:27.931Z,82.21
2017-04-03T07:47:08.811Z,82.12
2017-04-03T07:47:49.692Z,82.6
2017-04-03T07:48:30.571Z,83.07
2017-04-03T07:49:11.453Z,82.03
2017-04-03T07:49:52.336Z,82.12
2017-04-03T07:50:33.220Z,82.12
2017-04-03T07:51:14.113Z,82.5
2017-04-03T07:51:54.998Z,82.12
2017-04-03T07:52:35.880Z,82.21
2017-04-03T07:53:16.761Z,82.31
2017-04-03T07:53:57.644Z,81.93
2017-04-03T07:54:38.523Z,82.69
2017-04-03T07:55:19.394Z,82.79
2017-04-03T07:56:00.289Z,82.69
2017-04-03T07:56:41.176Z,82.5
2017-04-03T07:57:22.140Z,82.98
2017-04-03T07:58:02.970Z,82.69
2017-04-03T07:58:43.851Z,82.89
2017-04-03T07:59:24.729Z,83.26
2017-04-03T08:00:05.611Z,83.17
2017-04-03T08:00:46.494Z,83.36
2017-04-03T08:01:27.382Z,82.79
2017-04-03T08:02:08.265Z,83.17
2017-04-03T08:02:49.149Z,82.98
2017-04-03T08:03:30.040Z,82.5
2017-04-03T08:04:10.918Z,82.41
2017-04-03T08:04:51.806Z,81.93
2017-04-03T08:05:32.685Z,82.21
2017-04-03T08:06:13.554Z,81.93
2017-04-03T08:06:54.430Z,81.55
2017-04-03T08:07:35.314Z,81.55
2017-04-03T08:08:16.189Z,81.55
2017-04-03T08:08:57.058Z,81.84
2017-04-03T08:09:37.935Z,81.07
2017-04-03T08:10:18.819Z,81.36
2017-04-03T08:10:59.723Z,81.07
2017-04-03T08:11:40.578Z,81.36
2017-04-03T08:12:21.452Z,80.79
2017-04-03T08:13:02.335Z,80.88
2017-04-03T08:13:43.219Z,81.36
2017-04-03T08:14:24.110Z,81.17
2017-04-03T08:15:04.984Z,81.46
2017-04-03T08:15:45.863Z,81.55
2017-04-03T08:16:26.741Z,81.36
2017-04-03T08:17:07.658Z,81.17
2017-04-03T08:17:48.517Z,81.26
2017-04-03T08:18:29.399Z,81.36
2017-04-03T08:19:10.281Z,81.36
2017-04-03T08:19:51.160Z,81.65
2017-04-03T08:20:32.051Z,82.21
2017-04-03T08:21:12.923Z,82.12
2017-04-03T08:21:53.807Z,82.41
2017-04-03T08:22:34.685Z,82.69
2017-04-03T08:23:15.578Z,82.6
2017-04-03T08:23:56.504Z,81.84
2017-04-03T08:24:37.387Z,82.21
2017-04-03T08:25:18.275Z,81.84
2017-04-03T08:25:59.146Z,82.21
2017-04-03T08:26:40.024Z,81.46
2017-04-03T08:27:20.948Z,80.88
2017-04-03T08:28:01.800Z,80.88
2017-04-03T08:28:42.690Z,80.79
2017-04-03T08:29:23.580Z,80.6
2017-04-03T08:30:04.468Z,81.07
2017-04-03T08:30:45.346Z,80.5
2017-04-03T08:31:26.225Z,80.6
2017-04-03T08:32:07.108Z,80.79
2017-04-03T08:32:48.071Z,80.98
2017-04-03T08:33:28.932Z,80.98
2017-04-03T08:34:09.810Z,80.6
2017-04-03T08:34:50.679Z,80.79
2017-04-03T08:35:31.554Z,80.88
2017-04-03T08:36:12.424Z,80.6
2017-04-03T08:36:53.292Z,80.88
2017-04-03T08:37:34.178Z,80.79
2017-04-03T08:38:15.057Z,80.88
2017-04-03T08:38:55.937Z,80.79
2017-04-03T08:39:36.824Z,80.79
2017-04-03T08:40:17.733Z,80.6
2017-04-03T08:40:58.602Z,80.6
2017-04-03T08:41:39.479Z,80.79
2017-04-03T08:42:20.368Z,80.31
2017-04-03T08:43:01.247Z,80.41
2017-04-03T08:43:42.134Z,80.22
2017-04-03T08:44:23.034Z,80.26
2017-04-03T08:45:03.918Z,80.79
2017-04-03T08:45:44.810Z,80.31
2017-04-03T08:46:25.678Z,80.02
2017-04-03T08:47:06.558Z,80.26
2017-04-03T08:47:47.450Z,80.69
2017-04-03T08:48:28.346Z,80.31
2017-04-03T08:49:09.215Z,80.69
2017-04-03T08:49:50.092Z,80.69
2017-04-03T08:50:30.974Z,80.98
2017-04-03T08:51:11.854Z,80.83
2017-04-03T08:51:52.754Z,80.73